Time;durP1;ratioP1;P1;durP2;ratioP2;P2;SDS_P1;SDS_P2;PMS_P1;PMS_P2;Temp;Humidity;BMP_temperature;BMP_pressure;BME280_temperature;BME280_humidity;BME280_pressure;Samples;Min_cycle;Max_cycle;Signal;HPM_P1;HPM_P2
2022/08/27 00:05:39;;;;;;;11.10;8.40;;;18.90;99.90;;;;;;20940403;28;20029;-80
2022/08/27 00:15:40;;;;;;;16.88;9.25;;;18.50;99.90;;;;;;20912974;28;20106;-80
2022/08/27 00:25:41;;;;;;;11.53;8.27;;;18.40;99.90;;;;;;20911120;28;20479;-78
2022/08/27 00:35:42;;;;;;;13.13;9.27;;;18.50;99.90;;;;;;20864430;28;20543;-79
2022/08/27 00:45:45;;;;;;;13.83;8.40;;;18.50;99.90;;;;;;20920779;28;20041;-78
2022/08/27 00:55:51;;;;;;;11.55;7.90;;;18.50;99.90;;;;;;20926560;28;20406;-80
2022/08/27 01:05:55;;;;;;;6.97;5.70;;;18.60;99.90;;;;;;20929368;28;20060;-80
2022/08/27 01:15:58;;;;;;;11.10;6.38;;;18.60;99.90;;;;;;20924247;28;20591;-81
2022/08/27 01:25:59;;;;;;;17.67;8.57;;;18.50;99.90;;;;;;20932578;28;20037;-81
2022/08/27 01:36:00;;;;;;;13.55;8.40;;;18.20;99.90;;;;;;20880089;28;20140;-78
2022/08/27 01:46:01;;;;;;;13.47;8.50;;;18.20;99.90;;;;;;20949649;28;20033;-79
2022/08/27 01:56:03;;;;;;;16.00;9.63;;;18.20;99.90;;;;;;20976934;28;20064;-79
2022/08/27 02:06:07;;;;;;;10.55;7.40;;;18.20;99.90;;;;;;20920306;28;20045;-80
2022/08/27 02:16:07;;;;;;;11.20;7.65;;;18.20;99.90;;;;;;20922525;28;20120;-78
2022/08/27 02:26:08;;;;;;;14.60;7.37;;;18.40;99.90;;;;;;20940458;28;20064;-79
2022/08/27 02:36:09;;;;;;;11.67;7.67;;;18.40;99.90;;;;;;20918018;28;20037;-80
2022/08/27 02:46:10;;;;;;;11.83;6.77;;;18.50;99.90;;;;;;20926288;28;20037;-80
2022/08/27 02:56:11;;;;;;;10.80;8.00;;;18.40;99.90;;;;;;20938585;28;20029;-80
2022/08/27 03:06:12;;;;;;;13.63;8.23;;;18.00;99.90;;;;;;20944849;28;20029;-80
2022/08/27 03:16:13;;;;;;;10.93;7.73;;;17.90;99.90;;;;;;20936488;28;20033;-81
2022/08/27 03:26:14;;;;;;;12.97;7.93;;;18.10;99.90;;;;;;20931578;28;20442;-81
2022/08/27 03:36:15;;;;;;;12.87;8.00;;;18.20;99.90;;;;;;20940245;28;20491;-79
2022/08/27 03:46:16;;;;;;;12.73;8.10;;;18.10;99.90;;;;;;20937798;28;20048;-78
2022/08/27 03:56:16;;;;;;;14.43;8.87;;;18.00;99.90;;;;;;20931670;28;20056;-80
2022/08/27 04:06:17;;;;;;;10.87;7.63;;;18.00;99.90;;;;;;20934266;28;20033;-79
2022/08/27 04:16:18;;;;;;;14.50;9.00;;;17.90;99.90;;;;;;20922701;28;20483;-78
2022/08/27 04:26:19;;;;;;;13.37;8.13;;;18.00;99.90;;;;;;20886588;28;20048;-80
2022/08/27 04:36:20;;;;;;;7.53;5.30;;;17.80;99.90;;;;;;20931471;28;20367;-80
2022/08/27 04:46:22;;;;;;;7.60;4.70;;;17.80;99.90;;;;;;20927021;28;20155;-80
2022/08/27 04:56:23;;;;;;;8.88;5.00;;;17.60;99.90;;;;;;20928367;28;20041;-80
2022/08/27 05:06:25;;;;;;;6.40;3.97;;;17.60;99.90;;;;;;20986780;28;20068;-79
2022/08/27 05:16:26;;;;;;;10.05;5.50;;;17.70;99.90;;;;;;20945311;28;20107;-78
2022/08/27 05:26:29;;;;;;;7.78;5.03;;;17.70;99.90;;;;;;21008145;28;20043;-76
2022/08/27 05:36:33;;;;;;;9.85;5.70;;;17.60;99.90;;;;;;20972270;28;20092;-80
2022/08/27 05:46:36;;;;;;;13.25;8.63;;;17.90;99.90;;;;;;20986713;22;20056;-79
2022/08/27 05:56:37;;;;;;;10.90;7.18;;;18.10;99.90;;;;;;21004463;28;20045;-80
2022/08/27 06:06:41;;;;;;;14.40;9.17;;;18.30;99.90;;;;;;20989557;28;20060;-79
2022/08/27 06:16:41;;;;;;;14.48;7.72;;;18.30;99.90;;;;;;21006097;28;20123;-78
2022/08/27 06:26:44;;;;;;;10.00;7.20;;;18.50;99.90;;;;;;20987248;28;20141;-78
2022/08/27 06:36:45;;;;;;;12.93;5.97;;;18.60;99.90;;;;;;21005720;28;20043;-78
2022/08/27 06:46:46;;;;;;;6.87;5.20;;;18.70;99.90;;;;;;20988444;28;20043;-78
2022/08/27 06:56:48;;;;;;;9.02;6.05;;;19.00;99.90;;;;;;20961348;28;20380;-79
2022/08/27 07:06:50;;;;;;;8.43;5.45;;;19.90;99.90;;;;;;20919709;28;20040;-79
2022/08/27 07:16:51;;;;;;;;;;;20.30;99.90;;;;;;20901193;28;20503;-80
2022/08/27 07:26:51;;;;;;;7.55;4.40;;;19.90;99.90;;;;;;20917800;28;19916;-80
2022/08/27 07:36:52;;;;;;;7.63;4.33;;;20.30;99.90;;;;;;20916705;28;20155;-79
2022/08/27 07:46:55;;;;;;;6.40;3.47;;;21.00;99.90;;;;;;20897880;28;20037;-80
2022/08/27 07:56:56;;;;;;;3.78;2.92;;;20.90;99.90;;;;;;20916808;28;20041;-79
2022/08/27 08:06:56;;;;;;;4.50;3.73;;;21.20;99.90;;;;;;20920038;28;20068;-79
2022/08/27 08:17:02;;;;;;;6.57;3.37;;;20.90;99.90;;;;;;20901394;28;20191;-79
2022/08/27 08:27:03;;;;;;;3.17;2.67;;;21.50;99.90;;;;;;20918155;28;20093;-80
2022/08/27 08:37:04;;;;;;;16.37;9.43;;;22.10;99.90;;;;;;20900539;28;20049;-80
2022/08/27 08:47:25;;;;;;;4.05;2.58;;;22.00;99.90;;;;;;20915549;28;20606;-79
2022/08/27 08:57:31;;;;;;;4.10;2.60;;;21.30;99.90;;;;;;20913818;28;20095;-80
2022/08/27 09:07:44;;;;;;;3.92;2.67;;;22.30;99.90;;;;;;20895320;28;20060;-80
2022/08/27 09:17:46;;;;;;;4.18;2.40;;;22.60;99.90;;;;;;20879831;28;20079;-81
2022/08/27 09:27:49;;;;;;;2.10;1.75;;;22.00;99.90;;;;;;20915391;28;20063;-81
2022/08/27 09:37:53;;;;;;;2.17;1.80;;;22.80;99.90;;;;;;20896366;28;20045;-81
2022/08/27 09:48:08;;;;;;;2.63;1.80;;;23.50;99.90;;;;;;20899338;28;20044;-80
2022/08/27 09:58:31;;;;;;;2.08;1.83;;;22.90;99.90;;;;;;20911257;28;20059;-80
2022/08/27 10:08:47;;;;;;;1.92;1.73;;;23.00;99.90;;;;;;20893028;28;20045;-80
2022/08/27 10:19:26;;;;;;;1.67;1.58;;;22.70;99.90;;;;;;20909793;28;20088;-80
2022/08/27 10:29:51;;;;;;;3.20;1.58;;;22.50;99.90;;;;;;20907407;28;20051;-79
2022/08/27 10:40:29;;;;;;;3.55;2.00;;;22.60;99.90;;;;;;20985580;28;20123;-78
2022/08/27 10:50:55;;;;;;;4.25;2.67;;;22.60;99.90;;;;;;20915614;28;20054;-78
2022/08/27 11:01:25;;;;;;;5.05;2.92;;;23.00;99.90;;;;;;20929056;28;20079;-79
2022/08/27 11:11:37;;;;;;;7.70;3.42;;;23.90;99.90;;;;;;20927082;28;20643;-79
2022/08/27 11:21:44;;;;;;;8.07;4.63;;;25.00;99.90;;;;;;20948932;28;20044;-78
2022/08/27 11:31:56;;;;;;;8.82;4.78;;;25.70;99.90;;;;;;20925194;28;20407;-79
2022/08/27 11:42:00;;;;;;;7.50;4.30;;;26.90;99.90;;;;;;20925586;28;20048;-80
2022/08/27 11:52:08;;;;;;;7.85;5.47;;;26.80;99.90;;;;;;20898866;28;20033;-80
2022/08/27 12:02:25;;;;;;;7.03;5.00;;;27.40;99.90;;;;;;20988613;22;20084;-78
2022/08/27 12:12:41;;;;;;;8.38;4.47;;;27.70;99.90;;;;;;20990039;28;20045;-79
2022/08/27 12:33:38;;;;;;;4.43;3.20;;;27.20;99.90;;;;;;20956594;28;20044;-78
2022/08/27 12:43:42;;;;;;;6.07;4.75;;;26.50;99.90;;;;;;20985455;28;20498;-76
2022/08/27 12:54:11;;;;;;;6.00;4.82;;;25.00;99.90;;;;;;21003302;28;20045;-77
2022/08/27 13:04:22;;;;;;;7.47;5.25;;;24.10;99.90;;;;;;20996150;28;20048;-77
2022/08/27 13:14:25;;;;;;;4.43;3.05;;;23.50;99.90;;;;;;20995471;28;20090;-76
2022/08/27 13:24:26;;;;;;;4.07;2.83;;;22.20;99.90;;;;;;20998402;28;20498;-76
2022/08/27 13:34:34;;;;;;;5.67;3.50;;;21.90;99.90;;;;;;21008385;28;20072;-76
2022/08/27 13:44:39;;;;;;;5.82;3.83;;;22.30;99.90;;;;;;21001980;28;20045;-77
2022/08/27 13:54:49;;;;;;;6.15;4.00;;;22.00;99.90;;;;;;21009796;28;20040;-78
2022/08/27 14:05:06;;;;;;;6.63;4.03;;;22.50;99.90;;;;;;21045174;28;20051;-79
2022/08/27 14:15:29;;;;;;;8.18;3.95;;;22.90;99.90;;;;;;21045359;28;20037;-77
2022/08/27 14:25:33;;;;;;;6.22;4.32;;;24.50;99.90;;;;;;21045019;28;20047;-79
2022/08/27 14:35:35;;;;;;;7.50;3.85;;;24.40;99.90;;;;;;21014925;28;20051;-78
2022/08/27 14:45:37;;;;;;;5.15;3.90;;;26.40;99.90;;;;;;21029523;28;20032;-78
2022/08/27 14:55:38;;;;;;;8.02;4.22;;;26.10;99.90;;;;;;21026910;28;20044;-78
2022/08/27 15:05:39;;;;;;;6.20;4.07;;;27.10;99.90;;;;;;21010998;28;20517;-78
2022/08/27 15:15:40;;;;;;;5.43;4.22;;;26.70;99.90;;;;;;21011245;28;20419;-78
2022/08/27 15:25:43;;;;;;;8.38;4.80;;;25.80;99.90;;;;;;21007904;28;20036;-79
2022/08/27 15:35:44;;;;;;;5.85;4.22;;;25.10;99.90;;;;;;21001619;28;20397;-79
2022/08/27 15:45:45;;;;;;;8.37;4.30;;;21.60;99.90;;;;;;21040902;28;20028;-76
2022/08/27 15:55:47;;;;;;;10.30;4.37;;;20.20;99.90;;;;;;21071598;28;20283;-78
2022/08/27 16:05:48;;;;;;;5.90;4.00;;;20.10;99.90;;;;;;21072351;28;20040;-79
2022/08/27 16:15:50;;;;;;;5.57;3.53;;;20.20;99.90;;;;;;21029986;28;20465;-78
2022/08/27 16:25:54;;;;;;;6.07;4.15;;;19.80;99.90;;;;;;21025656;28;20036;-78
2022/08/27 16:35:55;;;;;;;10.85;6.05;;;20.10;99.90;;;;;;21080859;28;20020;-78
2022/08/27 16:45:58;;;;;;;8.27;3.77;;;21.00;99.90;;;;;;21100408;28;20079;-80
2022/08/27 16:55:59;;;;;;;7.97;3.35;;;21.40;99.90;;;;;;21080241;28;20043;-77
2022/08/27 17:06:01;;;;;;;5.00;3.50;;;21.20;99.90;;;;;;21011517;28;20045;-78
2022/08/27 17:16:02;;;;;;;;;;;20.70;99.90;;;;;;20939961;28;20045;-78
2022/08/27 17:26:06;;;;;;;4.82;3.70;;;20.70;99.90;;;;;;20953064;28;19919;-78
2022/08/27 17:36:08;;;;;;;8.52;4.97;;;20.60;99.90;;;;;;20981198;28;20067;-78
2022/08/27 17:46:09;;;;;;;9.93;6.85;;;20.30;99.90;;;;;;20964348;28;20048;-78
2022/08/27 17:56:09;;;;;;;8.30;5.80;;;19.90;99.90;;;;;;20964544;28;20041;-76
2022/08/27 18:06:10;;;;;;;10.50;5.93;;;19.70;99.90;;;;;;21026000;23;20527;-82
2022/08/27 18:16:11;;;;;;;10.40;5.23;;;19.30;99.90;;;;;;20979846;28;20539;-85
2022/08/27 18:26:19;;;;;;;8.33;6.00;;;19.00;99.90;;;;;;20979217;28;20071;-83
2022/08/27 18:36:20;;;;;;;8.93;5.80;;;18.70;99.90;;;;;;20996726;28;20044;-82
2022/08/27 18:46:21;;;;;;;8.80;5.53;;;18.40;99.90;;;;;;20968036;28;20048;-82
2022/08/27 18:56:21;;;;;;;7.33;5.40;;;18.40;99.90;;;;;;20981455;28;20041;-83
2022/08/27 19:06:23;;;;;;;5.83;4.67;;;18.30;99.90;;;;;;20992926;28;20048;-84
2022/08/27 19:16:52;;;;;;;7.83;5.30;;;18.40;99.90;;;;;;20991969;28;20071;-82
2022/08/27 19:26:53;;;;;;;8.02;5.85;;;18.20;99.90;;;;;;20972853;28;20283;-81
2022/08/27 19:36:54;;;;;;;9.97;5.50;;;18.10;99.90;;;;;;20957001;28;20512;-83
2022/08/27 19:46:55;;;;;;;6.22;4.35;;;18.00;99.90;;;;;;20956080;28;20131;-83
2022/08/27 19:56:56;;;;;;;6.35;4.97;;;18.20;99.90;;;;;;20956152;28;20189;-85
2022/08/27 20:06:58;;;;;;;7.70;5.17;;;17.90;99.90;;;;;;20971108;28;20060;-83
2022/08/27 20:16:58;;;;;;;9.00;5.28;;;17.60;99.90;;;;;;20970860;28;20033;-83
2022/08/27 20:26:59;;;;;;;9.63;6.73;;;17.40;99.90;;;;;;21009395;28;20059;-84
2022/08/27 20:37:02;;;;;;;10.57;6.40;;;17.30;99.90;;;;;;21040084;28;20039;-85
2022/08/27 20:47:03;;;;;;;10.20;5.45;;;17.30;99.90;;;;;;21049935;28;20040;-85
2022/08/27 20:57:04;;;;;;;8.35;5.22;;;17.30;99.90;;;;;;21048253;28;20064;-85
2022/08/27 21:07:05;;;;;;;6.57;4.90;;;17.20;99.90;;;;;;21046206;28;20040;-84
2022/08/27 21:17:06;;;;;;;8.77;5.17;;;17.10;99.90;;;;;;21051100;28;20737;-84
2022/08/27 21:27:07;;;;;;;12.20;5.37;;;16.90;99.90;;;;;;21068448;28;20032;-84
2022/08/27 21:37:10;;;;;;;7.63;5.80;;;16.90;99.90;;;;;;21049843;28;20300;-84
2022/08/27 21:47:11;;;;;;;6.80;5.28;;;17.00;99.90;;;;;;21057532;28;20044;-84
2022/08/27 21:57:14;;;;;;;9.53;6.17;;;16.90;99.90;;;;;;21082233;28;20093;-84
2022/08/27 22:07:17;;;;;;;10.10;5.45;;;16.80;99.90;;;;;;21047374;28;20088;-84
2022/08/27 22:17:18;;;;;;;7.97;5.68;;;16.80;99.90;;;;;;21063384;28;20048;-85
2022/08/27 22:27:19;;;;;;;9.17;5.43;;;16.70;99.90;;;;;;21063145;28;20108;-83
2022/08/27 22:37:20;;;;;;;11.80;6.47;;;16.60;99.90;;;;;;21063074;28;20400;-84
2022/08/27 22:47:21;;;;;;;12.57;7.23;;;16.40;99.90;;;;;;21045349;28;20471;-83
2022/08/27 22:57:21;;;;;;;10.60;7.00;;;16.30;99.90;;;;;;21078386;28;20047;-87
2022/08/27 23:07:23;;;;;;;11.67;7.47;;;16.30;99.90;;;;;;21043922;28;20472;-85
2022/08/27 23:17:24;;;;;;;;;;;16.20;99.90;;;;;;21078398;28;20040;-87
2022/08/27 23:27:28;;;;;;;13.63;5.80;;;16.20;99.90;;;;;;21059407;28;19912;-87
2022/08/27 23:37:29;;;;;;;8.18;6.07;;;16.30;99.90;;;;;;21041981;28;20086;-88
2022/08/27 23:47:29;;;;;;;7.33;5.30;;;16.40;99.90;;;;;;21075036;28;20044;-87
2022/08/27 23:57:31;;;;;;;8.40;6.40;;;16.30;99.90;;;;;;21057320;28;20040;-88
